Shishmaref, AK

3:47 PM AKDT on May 29, 2015 (GMT -0800)
New Shishmaref | | Change Station
CLOSE
Current Station
Airport
Location: Shishmaref,
Elevation: 13 ft
Nearby Weather Stations

Elev 13 ft 66.25 °N, 166.09 °W | Updated 18 hours ago

Partly Cloudy
Partly Cloudy
49 °F
Feels Like 49 °F
N
14
Wind Variable Wind from NE
Gusts mph

Today
High -- | Low -- °F
--% Chance of Precip.
Yesterday
High -- | Low -- °F
Precip. -- in
4:22 AM 1:45 AM
Waxing Gibbous, 86% visible
Pressure 30.34 in
Visibility 10.0 miles
Clouds Overcast 6000 ft
Dew Point 37 °F
Humidity 64%
Rainfall 0.00 in
Snow Depth Not available.
UV 0 out of 12
Pollen Not available.
Air Quality Not available.
Flu Activity Sporadic
METAR PASH 290535Z AUTO 03010KT 10SM OVC060 04/02 A3034 RMK VIA PHONE

More Conditions Fewer Conditions

Pressure 30.34 in
Visibility 10.0 miles
Clouds Overcast 6000 ft
Dew Point 37 °F
Humidity 64%
Rainfall 0.00 in
Snow Depth Not available.
UV 0 out of 12
Pollen Not available.
Air Quality Not available.
Flu Activity Sporadic
METAR PASH 290535Z AUTO 03010KT 10SM OVC060 04/02 A3034 RMK VIA PHONE

More Conditions Fewer Conditions

10-Day Weather Forecast

Almanac

Astronomy

May. 29, 2015 Rise Set
Actual Time
Civil Twilight
Nautical Twilight
Astronomical Twilight
Moon
Length of Visible Light
Length of Day
Tomorrow will be .
, % of the Moon is Illuminated

Today's Extremes

State Highs State Lows

Community

WunderPhotos

Upload Photos

1,825,402 photos uploaded!

WunderBlogs® & News

Nearby

Air Quality

  Air Quality AQ Index Pollutant
Not available.

Snow Depth

Station Depth Elevation

Earthquake Activity

City Distance Mag. Time & Date
Minimum magnitude displayed is 2.5.

Coastal Water Temperatures

Place Temperature

Stations

Nearby Weather Stations

Station Location Temp. Windchill Dew Point Humidity Wind Precip. Elev Updated Type